sensor_id;sensor_type;location;lat;lon;timestamp;P1;durP1;ratioP1;P2;durP2;ratioP2
49858;SDS011;35756;52.346;13.622;2023-06-22T00:00:51;20.10;;;16.73;;
49858;SDS011;35756;52.346;13.622;2023-06-22T00:03:17;19.23;;;15.57;;
49858;SDS011;35756;52.346;13.622;2023-06-22T00:05:43;20.20;;;17.00;;
49858;SDS011;35756;52.346;13.622;2023-06-22T00:08:08;22.98;;;16.45;;
49858;SDS011;35756;52.346;13.622;2023-06-22T00:10:33;19.40;;;14.88;;
49858;SDS011;35756;52.346;13.622;2023-06-22T00:12:59;20.17;;;15.57;;
49858;SDS011;35756;52.346;13.622;2023-06-22T00:15:24;20.15;;;15.85;;
49858;SDS011;35756;52.346;13.622;2023-06-22T00:17:50;19.25;;;14.90;;
49858;SDS011;35756;52.346;13.622;2023-06-22T00:20:15;23.27;;;16.40;;
49858;SDS011;35756;52.346;13.622;2023-06-22T00:22:42;19.80;;;15.57;;
49858;SDS011;35756;52.346;13.622;2023-06-22T00:25:08;19.05;;;14.50;;
49858;SDS011;35756;52.346;13.622;2023-06-22T00:27:34;19.83;;;15.82;;
49858;SDS011;35756;52.346;13.622;2023-06-22T00:29:59;19.67;;;14.32;;
49858;SDS011;35756;52.346;13.622;2023-06-22T00:32:25;20.60;;;14.65;;
49858;SDS011;35756;52.346;13.622;2023-06-22T00:34:50;24.13;;;15.00;;
49858;SDS011;35756;52.346;13.622;2023-06-22T00:37:15;19.73;;;14.45;;
49858;SDS011;35756;52.346;13.622;2023-06-22T00:39:41;22.10;;;15.50;;
49858;SDS011;35756;52.346;13.622;2023-06-22T00:42:06;21.10;;;15.70;;
49858;SDS011;35756;52.346;13.622;2023-06-22T00:44:31;19.63;;;14.10;;
49858;SDS011;35756;52.346;13.622;2023-06-22T00:46:57;18.92;;;14.85;;
49858;SDS011;35756;52.346;13.622;2023-06-22T00:49:23;19.58;;;14.82;;
49858;SDS011;35756;52.346;13.622;2023-06-22T00:51:48;19.42;;;14.65;;
49858;SDS011;35756;52.346;13.622;2023-06-22T00:54:13;21.98;;;16.40;;
49858;SDS011;35756;52.346;13.622;2023-06-22T00:56:40;21.80;;;16.45;;
49858;SDS011;35756;52.346;13.622;2023-06-22T00:59:05;19.90;;;15.35;;
49858;SDS011;35756;52.346;13.622;2023-06-22T01:01:31;20.92;;;15.55;;
49858;SDS011;35756;52.346;13.622;2023-06-22T01:03:57;20.23;;;15.77;;
49858;SDS011;35756;52.346;13.622;2023-06-22T01:06:25;21.13;;;16.45;;
49858;SDS011;35756;52.346;13.622;2023-06-22T01:09:02;22.08;;;16.83;;
49858;SDS011;35756;52.346;13.622;2023-06-22T01:11:32;19.95;;;15.48;;
49858;SDS011;35756;52.346;13.622;2023-06-22T01:16:41;21.27;;;15.57;;
49858;SDS011;35756;52.346;13.622;2023-06-22T01:19:14;21.60;;;14.80;;
49858;SDS011;35756;52.346;13.622;2023-06-22T01:21:46;19.88;;;15.30;;
49858;SDS011;35756;52.346;13.622;2023-06-22T01:27:34;20.48;;;15.05;;
49858;SDS011;35756;52.346;13.622;2023-06-22T01:30:07;20.35;;;15.73;;
49858;SDS011;35756;52.346;13.622;2023-06-22T01:32:35;20.55;;;16.23;;
49858;SDS011;35756;52.346;13.622;2023-06-22T01:35:02;19.42;;;15.98;;
49858;SDS011;35756;52.346;13.622;2023-06-22T01:37:29;22.98;;;16.42;;
49858;SDS011;35756;52.346;13.622;2023-06-22T01:39:57;20.27;;;15.55;;
49858;SDS011;35756;52.346;13.622;2023-06-22T01:42:23;19.58;;;15.65;;
49858;SDS011;35756;52.346;13.622;2023-06-22T01:44:49;20.05;;;16.27;;
49858;SDS011;35756;52.346;13.622;2023-06-22T01:47:16;23.33;;;16.55;;
49858;SDS011;35756;52.346;13.622;2023-06-22T01:49:42;20.63;;;15.90;;
49858;SDS011;35756;52.346;13.622;2023-06-22T01:52:08;19.15;;;15.25;;
49858;SDS011;35756;52.346;13.622;2023-06-22T01:54:33;20.55;;;14.68;;
49858;SDS011;35756;52.346;13.622;2023-06-22T01:56:58;19.65;;;15.23;;
49858;SDS011;35756;52.346;13.622;2023-06-22T01:59:34;18.42;;;14.25;;
49858;SDS011;35756;52.346;13.622;2023-06-22T02:02:06;19.85;;;14.63;;
49858;SDS011;35756;52.346;13.622;2023-06-22T02:04:34;17.60;;;14.93;;
49858;SDS011;35756;52.346;13.622;2023-06-22T02:07:03;17.40;;;14.10;;
49858;SDS011;35756;52.346;13.622;2023-06-22T02:09:30;19.25;;;14.70;;
49858;SDS011;35756;52.346;13.622;2023-06-22T02:11:56;18.08;;;14.18;;
49858;SDS011;35756;52.346;13.622;2023-06-22T02:14:23;19.58;;;15.38;;
49858;SDS011;35756;52.346;13.622;2023-06-22T02:16:50;18.40;;;14.40;;
49858;SDS011;35756;52.346;13.622;2023-06-22T02:19:15;17.40;;;13.50;;
49858;SDS011;35756;52.346;13.622;2023-06-22T02:21:41;18.45;;;14.75;;
49858;SDS011;35756;52.346;13.622;2023-06-22T02:24:06;18.23;;;14.77;;
49858;SDS011;35756;52.346;13.622;2023-06-22T02:26:31;19.45;;;15.20;;
49858;SDS011;35756;52.346;13.622;2023-06-22T02:28:57;17.48;;;15.20;;
49858;SDS011;35756;52.346;13.622;2023-06-22T02:31:23;17.02;;;14.23;;
49858;SDS011;35756;52.346;13.622;2023-06-22T02:33:55;15.57;;;13.50;;
49858;SDS011;35756;52.346;13.622;2023-06-22T02:36:22;16.27;;;13.68;;
49858;SDS011;35756;52.346;13.622;2023-06-22T02:38:48;18.38;;;14.25;;
49858;SDS011;35756;52.346;13.622;2023-06-22T02:41:14;15.90;;;13.68;;
49858;SDS011;35756;52.346;13.622;2023-06-22T02:43:43;19.60;;;13.60;;
49858;SDS011;35756;52.346;13.622;2023-06-22T02:46:09;16.92;;;13.65;;
49858;SDS011;35756;52.346;13.622;2023-06-22T02:48:34;19.25;;;14.63;;
49858;SDS011;35756;52.346;13.622;2023-06-22T02:51:00;17.50;;;14.23;;
49858;SDS011;35756;52.346;13.622;2023-06-22T02:53:25;16.33;;;13.38;;
49858;SDS011;35756;52.346;13.622;2023-06-22T02:55:50;19.67;;;14.25;;
49858;SDS011;35756;52.346;13.622;2023-06-22T02:58:16;16.50;;;13.20;;
49858;SDS011;35756;52.346;13.622;2023-06-22T03:00:41;18.00;;;13.68;;
49858;SDS011;35756;52.346;13.622;2023-06-22T03:03:06;16.20;;;13.68;;
49858;SDS011;35756;52.346;13.622;2023-06-22T03:05:32;15.73;;;12.70;;
49858;SDS011;35756;52.346;13.622;2023-06-22T03:07:57;15.95;;;12.48;;
49858;SDS011;35756;52.346;13.622;2023-06-22T03:10:23;17.63;;;12.65;;
49858;SDS011;35756;52.346;13.622;2023-06-22T03:12:48;16.00;;;13.45;;
49858;SDS011;35756;52.346;13.622;2023-06-22T03:15:13;17.98;;;13.38;;
49858;SDS011;35756;52.346;13.622;2023-06-22T03:17:39;15.70;;;13.48;;
49858;SDS011;35756;52.346;13.622;2023-06-22T03:20:05;16.67;;;13.50;;
49858;SDS011;35756;52.346;13.622;2023-06-22T03:22:35;16.63;;;12.98;;
49858;SDS011;35756;52.346;13.622;2023-06-22T03:25:04;16.17;;;14.18;;
49858;SDS011;35756;52.346;13.622;2023-06-22T03:27:34;17.92;;;13.48;;
49858;SDS011;35756;52.346;13.622;2023-06-22T03:30:00;15.95;;;13.00;;
49858;SDS011;35756;52.346;13.622;2023-06-22T03:32:25;16.08;;;12.95;;
49858;SDS011;35756;52.346;13.622;2023-06-22T03:34:52;14.82;;;12.27;;
49858;SDS011;35756;52.346;13.622;2023-06-22T03:37:18;16.38;;;12.98;;
49858;SDS011;35756;52.346;13.622;2023-06-22T03:39:43;20.02;;;15.20;;
49858;SDS011;35756;52.346;13.622;2023-06-22T03:42:08;16.70;;;12.13;;
49858;SDS011;35756;52.346;13.622;2023-06-22T03:44:34;14.45;;;11.82;;
49858;SDS011;35756;52.346;13.622;2023-06-22T03:47:01;15.82;;;12.07;;
49858;SDS011;35756;52.346;13.622;2023-06-22T03:49:27;14.93;;;12.10;;
49858;SDS011;35756;52.346;13.622;2023-06-22T03:51:52;15.20;;;12.52;;
49858;SDS011;35756;52.346;13.622;2023-06-22T03:54:17;16.92;;;12.38;;
49858;SDS011;35756;52.346;13.622;2023-06-22T03:56:43;13.90;;;10.90;;
49858;SDS011;35756;52.346;13.622;2023-06-22T03:59:08;16.15;;;11.80;;
49858;SDS011;35756;52.346;13.622;2023-06-22T04:01:33;15.27;;;11.68;;
49858;SDS011;35756;52.346;13.622;2023-06-22T04:03:58;15.60;;;11.18;;
49858;SDS011;35756;52.346;13.622;2023-06-22T04:06:24;13.90;;;11.10;;
49858;SDS011;35756;52.346;13.622;2023-06-22T04:08:49;14.02;;;11.38;;
49858;SDS011;35756;52.346;13.622;2023-06-22T04:11:16;14.20;;;11.00;;
49858;SDS011;35756;52.346;13.622;2023-06-22T04:13:42;15.20;;;10.90;;
49858;SDS011;35756;52.346;13.622;2023-06-22T04:16:08;15.38;;;11.18;;
49858;SDS011;35756;52.346;13.622;2023-06-22T04:18:33;16.70;;;11.80;;
49858;SDS011;35756;52.346;13.622;2023-06-22T04:20:58;13.35;;;10.55;;
49858;SDS011;35756;52.346;13.622;2023-06-22T04:23:23;14.82;;;11.63;;
49858;SDS011;35756;52.346;13.622;2023-06-22T04:25:49;12.85;;;10.43;;
49858;SDS011;35756;52.346;13.622;2023-06-22T04:28:14;15.90;;;11.10;;
49858;SDS011;35756;52.346;13.622;2023-06-22T04:30:39;13.68;;;10.65;;
49858;SDS011;35756;52.346;13.622;2023-06-22T04:33:12;14.10;;;10.50;;
49858;SDS011;35756;52.346;13.622;2023-06-22T04:35:38;13.45;;;10.88;;
49858;SDS011;35756;52.346;13.622;2023-06-22T04:38:06;15.30;;;10.75;;
49858;SDS011;35756;52.346;13.622;2023-06-22T04:40:31;15.00;;;10.25;;
49858;SDS011;35756;52.346;13.622;2023-06-22T04:42:56;14.50;;;10.38;;
49858;SDS011;35756;52.346;13.622;2023-06-22T04:45:22;15.35;;;10.68;;
49858;SDS011;35756;52.346;13.622;2023-06-22T04:47:47;12.88;;;10.93;;
49858;SDS011;35756;52.346;13.622;2023-06-22T04:50:12;10.57;;;9.40;;
49858;SDS011;35756;52.346;13.622;2023-06-22T04:52:38;11.85;;;9.10;;
49858;SDS011;35756;52.346;13.622;2023-06-22T04:55:03;10.45;;;9.18;;
49858;SDS011;35756;52.346;13.622;2023-06-22T04:57:29;10.75;;;8.43;;
49858;SDS011;35756;52.346;13.622;2023-06-22T05:00:00;12.60;;;8.85;;
49858;SDS011;35756;52.346;13.622;2023-06-22T05:02:38;11.50;;;9.07;;
49858;SDS011;35756;52.346;13.622;2023-06-22T05:05:06;11.18;;;8.82;;
49858;SDS011;35756;52.346;13.622;2023-06-22T05:07:34;9.27;;;8.00;;
49858;SDS011;35756;52.346;13.622;2023-06-22T05:10:00;9.80;;;8.20;;
49858;SDS011;35756;52.346;13.622;2023-06-22T05:12:29;10.35;;;7.68;;
49858;SDS011;35756;52.346;13.622;2023-06-22T05:14:55;10.07;;;8.25;;
49858;SDS011;35756;52.346;13.622;2023-06-22T05:17:21;9.27;;;7.25;;
49858;SDS011;35756;52.346;13.622;2023-06-22T05:19:46;11.70;;;7.65;;
49858;SDS011;35756;52.346;13.622;2023-06-22T05:22:14;8.80;;;6.57;;
49858;SDS011;35756;52.346;13.622;2023-06-22T05:24:40;13.80;;;7.13;;
49858;SDS011;35756;52.346;13.622;2023-06-22T05:27:05;9.88;;;6.28;;
49858;SDS011;35756;52.346;13.622;2023-06-22T05:29:31;8.88;;;5.80;;
49858;SDS011;35756;52.346;13.622;2023-06-22T05:31:56;8.45;;;6.30;;
49858;SDS011;35756;52.346;13.622;2023-06-22T05:34:21;10.25;;;6.40;;
49858;SDS011;35756;52.346;13.622;2023-06-22T05:36:47;7.03;;;5.30;;
49858;SDS011;35756;52.346;13.622;2023-06-22T05:39:12;8.27;;;5.47;;
49858;SDS011;35756;52.346;13.622;2023-06-22T05:41:38;7.35;;;5.25;;
49858;SDS011;35756;52.346;13.622;2023-06-22T05:44:04;8.52;;;5.25;;
49858;SDS011;35756;52.346;13.622;2023-06-22T05:46:29;7.82;;;5.30;;
49858;SDS011;35756;52.346;13.622;2023-06-22T05:48:54;6.50;;;5.18;;
49858;SDS011;35756;52.346;13.622;2023-06-22T05:51:19;6.05;;;4.47;;
49858;SDS011;35756;52.346;13.622;2023-06-22T05:53:45;7.47;;;4.53;;
49858;SDS011;35756;52.346;13.622;2023-06-22T05:56:14;8.13;;;4.30;;
49858;SDS011;35756;52.346;13.622;2023-06-22T05:58:39;7.13;;;4.22;;
49858;SDS011;35756;52.346;13.622;2023-06-22T06:01:04;7.95;;;4.10;;
49858;SDS011;35756;52.346;13.622;2023-06-22T06:03:30;5.70;;;4.35;;
49858;SDS011;35756;52.346;13.622;2023-06-22T06:05:55;6.13;;;4.25;;
49858;SDS011;35756;52.346;13.622;2023-06-22T06:08:20;6.55;;;4.13;;
49858;SDS011;35756;52.346;13.622;2023-06-22T06:10:46;7.55;;;4.50;;
49858;SDS011;35756;52.346;13.622;2023-06-22T06:13:11;5.38;;;4.45;;
49858;SDS011;35756;52.346;13.622;2023-06-22T06:15:37;6.47;;;4.15;;
49858;SDS011;35756;52.346;13.622;2023-06-22T06:18:02;6.03;;;4.80;;
49858;SDS011;35756;52.346;13.622;2023-06-22T06:20:29;5.10;;;4.10;;
49858;SDS011;35756;52.346;13.622;2023-06-22T06:22:55;5.43;;;4.15;;
49858;SDS011;35756;52.346;13.622;2023-06-22T06:25:21;5.15;;;3.85;;
49858;SDS011;35756;52.346;13.622;2023-06-22T06:27:47;9.80;;;4.22;;
49858;SDS011;35756;52.346;13.622;2023-06-22T06:30:13;5.68;;;4.18;;
49858;SDS011;35756;52.346;13.622;2023-06-22T06:32:39;5.55;;;4.13;;
49858;SDS011;35756;52.346;13.622;2023-06-22T06:35:06;6.45;;;4.43;;
49858;SDS011;35756;52.346;13.622;2023-06-22T06:37:32;4.85;;;3.78;;
49858;SDS011;35756;52.346;13.622;2023-06-22T06:40:00;8.10;;;3.83;;
49858;SDS011;35756;52.346;13.622;2023-06-22T06:42:25;4.47;;;3.47;;
49858;SDS011;35756;52.346;13.622;2023-06-22T06:44:50;4.93;;;3.78;;
49858;SDS011;35756;52.346;13.622;2023-06-22T06:47:16;6.35;;;4.53;;
49858;SDS011;35756;52.346;13.622;2023-06-22T06:49:41;7.13;;;4.07;;
49858;SDS011;35756;52.346;13.622;2023-06-22T06:52:07;5.90;;;4.20;;
49858;SDS011;35756;52.346;13.622;2023-06-22T06:54:33;8.18;;;4.25;;
49858;SDS011;35756;52.346;13.622;2023-06-22T06:56:58;6.40;;;4.20;;
49858;SDS011;35756;52.346;13.622;2023-06-22T06:59:23;5.72;;;3.80;;
49858;SDS011;35756;52.346;13.622;2023-06-22T07:01:48;4.57;;;3.42;;
49858;SDS011;35756;52.346;13.622;2023-06-22T07:04:14;4.85;;;3.63;;
49858;SDS011;35756;52.346;13.622;2023-06-22T07:06:39;6.28;;;3.63;;
49858;SDS011;35756;52.346;13.622;2023-06-22T07:09:04;4.68;;;3.55;;
49858;SDS011;35756;52.346;13.622;2023-06-22T07:11:30;4.70;;;3.72;;
49858;SDS011;35756;52.346;13.622;2023-06-22T07:13:55;5.85;;;3.45;;
49858;SDS011;35756;52.346;13.622;2023-06-22T07:16:20;6.22;;;3.80;;
49858;SDS011;35756;52.346;13.622;2023-06-22T07:18:46;4.50;;;3.33;;
49858;SDS011;35756;52.346;13.622;2023-06-22T07:21:11;5.30;;;3.55;;
49858;SDS011;35756;52.346;13.622;2023-06-22T07:23:36;7.50;;;4.05;;
49858;SDS011;35756;52.346;13.622;2023-06-22T07:26:01;5.20;;;3.50;;
49858;SDS011;35756;52.346;13.622;2023-06-22T07:28:27;5.70;;;3.35;;
49858;SDS011;35756;52.346;13.622;2023-06-22T07:30:52;6.55;;;3.70;;
49858;SDS011;35756;52.346;13.622;2023-06-22T07:33:18;7.35;;;3.35;;
49858;SDS011;35756;52.346;13.622;2023-06-22T07:35:43;3.63;;;3.00;;
49858;SDS011;35756;52.346;13.622;2023-06-22T07:38:09;4.88;;;3.60;;
49858;SDS011;35756;52.346;13.622;2023-06-22T07:40:34;5.85;;;3.60;;
49858;SDS011;35756;52.346;13.622;2023-06-22T07:43:00;6.53;;;3.70;;
49858;SDS011;35756;52.346;13.622;2023-06-22T07:45:25;4.15;;;3.20;;
49858;SDS011;35756;52.346;13.622;2023-06-22T07:47:50;5.68;;;3.50;;
49858;SDS011;35756;52.346;13.622;2023-06-22T07:50:16;4.82;;;3.67;;
49858;SDS011;35756;52.346;13.622;2023-06-22T07:52:41;7.47;;;3.85;;
49858;SDS011;35756;52.346;13.622;2023-06-22T07:55:06;5.85;;;3.92;;
49858;SDS011;35756;52.346;13.622;2023-06-22T07:57:32;4.78;;;3.72;;
49858;SDS011;35756;52.346;13.622;2023-06-22T07:59:59;4.90;;;3.63;;
49858;SDS011;35756;52.346;13.622;2023-06-22T08:02:25;5.43;;;3.58;;
49858;SDS011;35756;52.346;13.622;2023-06-22T08:04:50;6.60;;;4.38;;
49858;SDS011;35756;52.346;13.622;2023-06-22T08:07:16;6.97;;;3.53;;
49858;SDS011;35756;52.346;13.622;2023-06-22T08:09:45;6.40;;;3.70;;
49858;SDS011;35756;52.346;13.622;2023-06-22T08:12:12;4.68;;;3.33;;
49858;SDS011;35756;52.346;13.622;2023-06-22T08:14:38;5.25;;;3.63;;
49858;SDS011;35756;52.346;13.622;2023-06-22T08:17:03;6.35;;;3.88;;
49858;SDS011;35756;52.346;13.622;2023-06-22T08:19:29;5.75;;;3.90;;
49858;SDS011;35756;52.346;13.622;2023-06-22T08:21:54;5.13;;;3.70;;
49858;SDS011;35756;52.346;13.622;2023-06-22T08:24:19;5.90;;;3.58;;
49858;SDS011;35756;52.346;13.622;2023-06-22T08:26:44;6.18;;;3.38;;
49858;SDS011;35756;52.346;13.622;2023-06-22T08:29:10;7.15;;;3.90;;
49858;SDS011;35756;52.346;13.622;2023-06-22T08:31:35;5.65;;;3.72;;
49858;SDS011;35756;52.346;13.622;2023-06-22T08:34:01;4.60;;;3.30;;
49858;SDS011;35756;52.346;13.622;2023-06-22T08:36:26;4.97;;;3.50;;
49858;SDS011;35756;52.346;13.622;2023-06-22T08:38:55;4.50;;;3.30;;
49858;SDS011;35756;52.346;13.622;2023-06-22T08:41:26;5.75;;;3.60;;
49858;SDS011;35756;52.346;13.622;2023-06-22T08:43:52;3.85;;;3.20;;
49858;SDS011;35756;52.346;13.622;2023-06-22T08:46:18;6.25;;;3.55;;
49858;SDS011;35756;52.346;13.622;2023-06-22T08:48:47;4.40;;;3.30;;
49858;SDS011;35756;52.346;13.622;2023-06-22T08:51:12;5.45;;;3.55;;
49858;SDS011;35756;52.346;13.622;2023-06-22T08:53:38;5.45;;;3.72;;
49858;SDS011;35756;52.346;13.622;2023-06-22T08:56:04;7.13;;;3.50;;
49858;SDS011;35756;52.346;13.622;2023-06-22T08:58:29;5.50;;;3.60;;
49858;SDS011;35756;52.346;13.622;2023-06-22T09:00:54;4.70;;;3.42;;
49858;SDS011;35756;52.346;13.622;2023-06-22T09:03:20;4.95;;;3.50;;
49858;SDS011;35756;52.346;13.622;2023-06-22T09:05:45;5.68;;;3.80;;
49858;SDS011;35756;52.346;13.622;2023-06-22T09:08:11;5.93;;;3.40;;
49858;SDS011;35756;52.346;13.622;2023-06-22T09:10:36;4.22;;;3.45;;
49858;SDS011;35756;52.346;13.622;2023-06-22T09:13:01;5.40;;;3.40;;
49858;SDS011;35756;52.346;13.622;2023-06-22T09:15:26;5.13;;;3.60;;
49858;SDS011;35756;52.346;13.622;2023-06-22T09:17:52;5.65;;;3.50;;
49858;SDS011;35756;52.346;13.622;2023-06-22T09:20:19;5.25;;;3.38;;
49858;SDS011;35756;52.346;13.622;2023-06-22T09:22:44;4.40;;;3.00;;
49858;SDS011;35756;52.346;13.622;2023-06-22T09:25:10;4.43;;;3.20;;
49858;SDS011;35756;52.346;13.622;2023-06-22T09:27:35;6.13;;;3.50;;
49858;SDS011;35756;52.346;13.622;2023-06-22T09:30:00;4.00;;;3.05;;
49858;SDS011;35756;52.346;13.622;2023-06-22T09:32:25;6.18;;;3.53;;
49858;SDS011;35756;52.346;13.622;2023-06-22T09:34:51;4.60;;;3.15;;
49858;SDS011;35756;52.346;13.622;2023-06-22T09:37:16;5.50;;;3.38;;
49858;SDS011;35756;52.346;13.622;2023-06-22T09:39:42;4.90;;;3.28;;
49858;SDS011;35756;52.346;13.622;2023-06-22T09:42:07;5.35;;;3.17;;
49858;SDS011;35756;52.346;13.622;2023-06-22T09:44:32;6.30;;;2.78;;
49858;SDS011;35756;52.346;13.622;2023-06-22T09:46:58;5.60;;;2.92;;
49858;SDS011;35756;52.346;13.622;2023-06-22T09:49:23;4.95;;;3.42;;
49858;SDS011;35756;52.346;13.622;2023-06-22T09:51:48;4.13;;;3.25;;
49858;SDS011;35756;52.346;13.622;2023-06-22T09:54:15;4.88;;;3.13;;
49858;SDS011;35756;52.346;13.622;2023-06-22T09:56:41;5.60;;;3.45;;
49858;SDS011;35756;52.346;13.622;2023-06-22T09:59:06;4.13;;;2.90;;
49858;SDS011;35756;52.346;13.622;2023-06-22T10:01:31;3.80;;;3.10;;
49858;SDS011;35756;52.346;13.622;2023-06-22T10:03:57;5.80;;;3.08;;
49858;SDS011;35756;52.346;13.622;2023-06-22T10:06:22;4.28;;;3.28;;
49858;SDS011;35756;52.346;13.622;2023-06-22T10:08:48;4.93;;;3.13;;
49858;SDS011;35756;52.346;13.622;2023-06-22T10:11:15;5.50;;;3.13;;
49858;SDS011;35756;52.346;13.622;2023-06-22T10:13:40;4.80;;;3.08;;
49858;SDS011;35756;52.346;13.622;2023-06-22T10:16:05;6.50;;;3.40;;
49858;SDS011;35756;52.346;13.622;2023-06-22T10:18:31;5.68;;;3.35;;
49858;SDS011;35756;52.346;13.622;2023-06-22T10:20:57;5.18;;;2.97;;
49858;SDS011;35756;52.346;13.622;2023-06-22T10:23:22;4.93;;;3.38;;
49858;SDS011;35756;52.346;13.622;2023-06-22T10:25:47;7.47;;;3.13;;
49858;SDS011;35756;52.346;13.622;2023-06-22T10:28:13;5.22;;;3.30;;
49858;SDS011;35756;52.346;13.622;2023-06-22T10:30:39;4.82;;;3.33;;
49858;SDS011;35756;52.346;13.622;2023-06-22T10:33:06;5.57;;;3.13;;
49858;SDS011;35756;52.346;13.622;2023-06-22T10:35:32;4.63;;;3.03;;
49858;SDS011;35756;52.346;13.622;2023-06-22T10:37:57;6.57;;;3.22;;
49858;SDS011;35756;52.346;13.622;2023-06-22T10:40:22;4.80;;;3.63;;
49858;SDS011;35756;52.346;13.622;2023-06-22T10:42:47;4.70;;;3.15;;
49858;SDS011;35756;52.346;13.622;2023-06-22T10:45:15;5.07;;;3.30;;
49858;SDS011;35756;52.346;13.622;2023-06-22T10:47:40;5.15;;;3.55;;
49858;SDS011;35756;52.346;13.622;2023-06-22T10:50:07;4.10;;;2.97;;
49858;SDS011;35756;52.346;13.622;2023-06-22T10:52:32;5.57;;;3.25;;
49858;SDS011;35756;52.346;13.622;2023-06-22T10:54:57;4.30;;;3.05;;
49858;SDS011;35756;52.346;13.622;2023-06-22T10:57:23;6.55;;;3.90;;
49858;SDS011;35756;52.346;13.622;2023-06-22T10:59:48;6.47;;;3.42;;
49858;SDS011;35756;52.346;13.622;2023-06-22T11:02:13;5.22;;;3.38;;
49858;SDS011;35756;52.346;13.622;2023-06-22T11:04:39;5.50;;;3.25;;
49858;SDS011;35756;52.346;13.622;2023-06-22T11:07:04;4.70;;;3.17;;
49858;SDS011;35756;52.346;13.622;2023-06-22T11:09:30;4.53;;;3.10;;
49858;SDS011;35756;52.346;13.622;2023-06-22T11:11:55;4.93;;;2.85;;
49858;SDS011;35756;52.346;13.622;2023-06-22T11:14:21;6.25;;;3.10;;
49858;SDS011;35756;52.346;13.622;2023-06-22T11:16:46;4.80;;;3.15;;
49858;SDS011;35756;52.346;13.622;2023-06-22T11:19:12;4.53;;;3.13;;
49858;SDS011;35756;52.346;13.622;2023-06-22T11:21:37;5.38;;;3.53;;
49858;SDS011;35756;52.346;13.622;2023-06-22T11:24:03;4.65;;;3.17;;
49858;SDS011;35756;52.346;13.622;2023-06-22T11:26:28;5.22;;;3.53;;
49858;SDS011;35756;52.346;13.622;2023-06-22T11:28:53;6.57;;;3.25;;
49858;SDS011;35756;52.346;13.622;2023-06-22T11:31:19;5.07;;;3.58;;
49858;SDS011;35756;52.346;13.622;2023-06-22T11:33:44;3.95;;;3.13;;
49858;SDS011;35756;52.346;13.622;2023-06-22T11:36:10;4.13;;;2.97;;
49858;SDS011;35756;52.346;13.622;2023-06-22T11:38:36;4.57;;;3.50;;
49858;SDS011;35756;52.346;13.622;2023-06-22T11:41:03;5.40;;;3.17;;
49858;SDS011;35756;52.346;13.622;2023-06-22T11:43:29;5.85;;;3.47;;
49858;SDS011;35756;52.346;13.622;2023-06-22T11:45:54;4.57;;;3.40;;
49858;SDS011;35756;52.346;13.622;2023-06-22T11:48:21;5.78;;;3.55;;
49858;SDS011;35756;52.346;13.622;2023-06-22T11:50:46;5.38;;;3.47;;
49858;SDS011;35756;52.346;13.622;2023-06-22T11:53:11;5.93;;;3.65;;
49858;SDS011;35756;52.346;13.622;2023-06-22T11:55:37;4.50;;;3.47;;
49858;SDS011;35756;52.346;13.622;2023-06-22T11:58:02;4.00;;;3.38;;
49858;SDS011;35756;52.346;13.622;2023-06-22T12:00:29;4.88;;;3.42;;
49858;SDS011;35756;52.346;13.622;2023-06-22T12:02:55;7.07;;;3.70;;
49858;SDS011;35756;52.346;13.622;2023-06-22T12:05:22;6.53;;;3.70;;
49858;SDS011;35756;52.346;13.622;2023-06-22T12:07:47;6.13;;;3.65;;
49858;SDS011;35756;52.346;13.622;2023-06-22T12:10:13;4.00;;;3.22;;
49858;SDS011;35756;52.346;13.622;2023-06-22T12:12:39;4.88;;;3.42;;
49858;SDS011;35756;52.346;13.622;2023-06-22T12:15:04;5.07;;;3.85;;
49858;SDS011;35756;52.346;13.622;2023-06-22T12:17:30;4.68;;;3.50;;
49858;SDS011;35756;52.346;13.622;2023-06-22T12:19:56;5.30;;;3.75;;
49858;SDS011;35756;52.346;13.622;2023-06-22T12:22:21;4.68;;;3.58;;
49858;SDS011;35756;52.346;13.622;2023-06-22T12:24:46;4.70;;;3.50;;
49858;SDS011;35756;52.346;13.622;2023-06-22T12:27:12;5.78;;;3.55;;
49858;SDS011;35756;52.346;13.622;2023-06-22T12:29:37;4.85;;;3.80;;
49858;SDS011;35756;52.346;13.622;2023-06-22T12:32:02;4.57;;;3.55;;
49858;SDS011;35756;52.346;13.622;2023-06-22T12:34:28;4.82;;;3.70;;
49858;SDS011;35756;52.346;13.622;2023-06-22T12:36:53;4.72;;;3.80;;
49858;SDS011;35756;52.346;13.622;2023-06-22T12:39:19;6.18;;;3.67;;
49858;SDS011;35756;52.346;13.622;2023-06-22T12:41:44;6.55;;;3.90;;
49858;SDS011;35756;52.346;13.622;2023-06-22T12:44:10;5.25;;;4.07;;
49858;SDS011;35756;52.346;13.622;2023-06-22T12:46:35;4.65;;;3.50;;
49858;SDS011;35756;52.346;13.622;2023-06-22T12:49:03;5.90;;;3.78;;
49858;SDS011;35756;52.346;13.622;2023-06-22T12:51:29;4.75;;;3.75;;
49858;SDS011;35756;52.346;13.622;2023-06-22T12:53:54;6.35;;;3.90;;
49858;SDS011;35756;52.346;13.622;2023-06-22T12:56:20;4.65;;;3.50;;
49858;SDS011;35756;52.346;13.622;2023-06-22T12:58:45;5.03;;;4.10;;
49858;SDS011;35756;52.346;13.622;2023-06-22T13:01:10;5.60;;;4.00;;
49858;SDS011;35756;52.346;13.622;2023-06-22T13:03:35;5.88;;;3.60;;
49858;SDS011;35756;52.346;13.622;2023-06-22T13:06:01;6.28;;;3.80;;
49858;SDS011;35756;52.346;13.622;2023-06-22T13:08:27;7.88;;;3.75;;
49858;SDS011;35756;52.346;13.622;2023-06-22T13:10:52;5.38;;;3.72;;
49858;SDS011;35756;52.346;13.622;2023-06-22T13:13:17;5.28;;;3.90;;
49858;SDS011;35756;52.346;13.622;2023-06-22T13:15:43;4.90;;;4.10;;
49858;SDS011;35756;52.346;13.622;2023-06-22T13:18:08;6.40;;;4.20;;
49858;SDS011;35756;52.346;13.622;2023-06-22T13:20:33;5.60;;;3.75;;
49858;SDS011;35756;52.346;13.622;2023-06-22T13:22:59;4.55;;;3.60;;
49858;SDS011;35756;52.346;13.622;2023-06-22T13:25:24;4.72;;;3.65;;
49858;SDS011;35756;52.346;13.622;2023-06-22T13:27:51;6.00;;;3.88;;
49858;SDS011;35756;52.346;13.622;2023-06-22T13:30:16;5.82;;;3.83;;
49858;SDS011;35756;52.346;13.622;2023-06-22T13:32:41;6.05;;;4.47;;
49858;SDS011;35756;52.346;13.622;2023-06-22T13:35:08;5.05;;;4.05;;
49858;SDS011;35756;52.346;13.622;2023-06-22T13:37:34;6.43;;;3.85;;
49858;SDS011;35756;52.346;13.622;2023-06-22T13:39:59;6.95;;;4.05;;
49858;SDS011;35756;52.346;13.622;2023-06-22T13:42:25;6.78;;;4.40;;
49858;SDS011;35756;52.346;13.622;2023-06-22T13:44:50;4.93;;;4.20;;
49858;SDS011;35756;52.346;13.622;2023-06-22T13:47:15;5.00;;;3.60;;
49858;SDS011;35756;52.346;13.622;2023-06-22T13:49:41;5.65;;;3.85;;
49858;SDS011;35756;52.346;13.622;2023-06-22T13:52:06;5.05;;;4.13;;
49858;SDS011;35756;52.346;13.622;2023-06-22T13:54:35;5.97;;;4.13;;
49858;SDS011;35756;52.346;13.622;2023-06-22T13:57:00;5.70;;;4.10;;
49858;SDS011;35756;52.346;13.622;2023-06-22T13:59:26;6.90;;;4.43;;
49858;SDS011;35756;52.346;13.622;2023-06-22T14:01:52;5.40;;;4.00;;
49858;SDS011;35756;52.346;13.622;2023-06-22T14:04:18;5.05;;;4.18;;
49858;SDS011;35756;52.346;13.622;2023-06-22T14:06:43;5.90;;;4.13;;
49858;SDS011;35756;52.346;13.622;2023-06-22T14:09:08;5.47;;;3.97;;
49858;SDS011;35756;52.346;13.622;2023-06-22T14:11:34;6.22;;;4.13;;
49858;SDS011;35756;52.346;13.622;2023-06-22T14:13:59;4.85;;;4.05;;
49858;SDS011;35756;52.346;13.622;2023-06-22T14:16:25;4.93;;;4.13;;
49858;SDS011;35756;52.346;13.622;2023-06-22T14:18:50;5.60;;;4.00;;
49858;SDS011;35756;52.346;13.622;2023-06-22T14:21:15;6.13;;;4.30;;
49858;SDS011;35756;52.346;13.622;2023-06-22T14:23:41;5.38;;;4.40;;